3WI4 weather

Flying 'O' Airport
Wausau, Wisconsin, United States

Public forecast

Using degrees Fahrenheit for public forecast. Weather courtesy of forecast.io.

Closest aviation weather report (METAR) to Flying 'O' Airport

Closest report is Wausau Downtown Airport, 9.5 nm (17.7 km) W. Retrieved 2020/08/06 15:54 UTC (8 minutes ago):

KAUW 061554Z AUTO VRB04KT 10SM CLR 23/12 A3013 RMK AO2 SLP202 T02280117

Closest aviation forecast (TAF) to Flying 'O' Airport

Closest forecast is Wausau Downtown Airport, 9.5 nm (17.7 km) W. Retrieved 2020/08/06 12:42 UTC (3 hours ago):

TAF KAUW 061141Z 0612/0712 VRB03KT P6SM SCT060 FM061500 23005KT P6SM SCT060 FM061900 21008G15KT P6SM SCT070 BKN100 FM062300 17006KT P6SM SCT070 FM070100 17003KT P6SM SKC